createdAt,value
2016-09-18T04:00:30.182Z,23.45
2016-09-18T04:00:55.951Z,23.52
2016-09-18T04:01:21.552Z,23.5
2016-09-18T04:01:47.110Z,23.53
2016-09-18T04:02:12.663Z,23.5
2016-09-18T04:02:38.194Z,23.57
2016-09-18T04:03:03.849Z,23.5
2016-09-18T04:03:29.482Z,23.55
2016-09-18T04:03:55.030Z,23.49
2016-09-18T04:04:20.671Z,23.49
2016-09-18T04:04:46.240Z,23.5
2016-09-18T04:05:11.802Z,23.52
2016-09-18T04:05:37.369Z,23.52
2016-09-18T04:06:02.924Z,23.55
2016-09-18T04:06:29.218Z,23.58
2016-09-18T04:06:54.824Z,23.53
2016-09-18T04:07:20.402Z,23.55
2016-09-18T04:07:45.969Z,23.58
2016-09-18T04:08:11.555Z,23.5
2016-09-18T04:08:59.371Z,23.65
2016-09-18T04:09:25.004Z,23.61
2016-09-18T04:09:50.585Z,23.55
2016-09-18T04:10:16.223Z,23.53
2016-09-18T04:10:41.790Z,23.52
2016-09-18T04:11:07.366Z,23.55
2016-09-18T04:11:32.935Z,23.52
2016-09-18T04:11:58.599Z,23.55
2016-09-18T04:12:24.157Z,23.52
2016-09-18T04:12:49.746Z,23.53
2016-09-18T04:13:15.337Z,23.55
2016-09-18T04:13:40.885Z,23.53
2016-09-18T04:14:06.470Z,23.55
2016-09-18T04:14:32.010Z,23.55
2016-09-18T04:14:57.572Z,23.52
2016-09-18T04:15:23.191Z,23.61
2016-09-18T04:15:48.763Z,23.6
2016-09-18T04:16:14.338Z,23.57
2016-09-18T04:16:39.887Z,23.52
2016-09-18T04:17:05.462Z,23.53
2016-09-18T04:17:31.041Z,23.49
2016-09-18T04:17:56.613Z,23.53
2016-09-18T04:18:22.170Z,23.53
2016-09-18T04:18:47.720Z,23.47
2016-09-18T04:19:13.363Z,23.52
2016-09-18T04:19:38.917Z,23.5
2016-09-18T04:20:04.534Z,23.58
2016-09-18T04:20:30.079Z,23.5
2016-09-18T04:20:55.746Z,23.42
2016-09-18T04:21:21.353Z,23.53
2016-09-18T04:21:46.927Z,23.42
2016-09-18T04:22:12.486Z,23.52
2016-09-18T04:22:38.045Z,23.42
2016-09-18T04:23:03.589Z,23.46
2016-09-18T04:23:29.140Z,23.49
2016-09-18T04:23:54.704Z,23.53
2016-09-18T04:24:20.255Z,23.42
2016-09-18T04:24:45.836Z,23.5
2016-09-18T04:25:11.399Z,23.47
2016-09-18T04:25:36.967Z,23.47
2016-09-18T04:26:02.510Z,23.46
2016-09-18T04:26:28.103Z,23.53
2016-09-18T04:26:53.664Z,23.49
2016-09-18T04:27:19.201Z,23.46
2016-09-18T04:27:44.766Z,23.53
2016-09-18T04:28:10.355Z,23.53
2016-09-18T04:28:35.943Z,23.52
2016-09-18T04:29:01.508Z,23.53
2016-09-18T04:29:27.084Z,23.53
2016-09-18T04:29:52.654Z,23.53
2016-09-18T04:30:18.213Z,23.46
2016-09-18T04:30:43.888Z,23.49
2016-09-18T04:31:09.431Z,23.45
2016-09-18T04:31:35.005Z,23.42
2016-09-18T04:32:00.578Z,23.43
2016-09-18T04:32:26.159Z,23.53
2016-09-18T04:32:51.717Z,23.47
2016-09-18T04:33:17.284Z,23.42
2016-09-18T04:33:42.862Z,23.5
2016-09-18T04:34:08.437Z,23.52
2016-09-18T04:34:34.018Z,23.46
2016-09-18T04:34:59.571Z,23.5
2016-09-18T04:35:25.154Z,23.43
2016-09-18T04:35:50.814Z,23.34
2016-09-18T04:36:16.394Z,23.52
2016-09-18T04:36:41.975Z,23.46
2016-09-18T04:37:07.712Z,23.5
2016-09-18T04:37:33.303Z,23.58
2016-09-18T04:37:58.863Z,23.53
2016-09-18T04:38:24.434Z,23.52
2016-09-18T04:38:50.028Z,23.43
2016-09-18T04:39:15.616Z,23.45
2016-09-18T04:39:41.182Z,23.38
2016-09-18T04:40:06.735Z,23.43
2016-09-18T04:40:32.306Z,23.43
2016-09-18T04:40:57.886Z,23.5
2016-09-18T04:41:23.428Z,23.5
2016-09-18T04:41:48.991Z,23.38
2016-09-18T04:42:14.703Z,23.45
2016-09-18T04:42:40.299Z,23.52
2016-09-18T04:43:05.846Z,23.5
2016-09-18T04:43:31.432Z,23.38
2016-09-18T04:43:57.067Z,23.43
2016-09-18T04:44:22.614Z,23.53
2016-09-18T04:44:48.220Z,23.5
2016-09-18T04:45:13.802Z,23.43
2016-09-18T04:45:39.423Z,23.4
2016-09-18T04:46:04.987Z,23.47
2016-09-18T04:46:30.652Z,23.47
2016-09-18T04:46:56.315Z,23.53
2016-09-18T04:47:22.030Z,23.5
2016-09-18T04:47:47.594Z,23.52
2016-09-18T04:48:55.944Z,23.4
2016-09-18T04:49:21.503Z,23.53
2016-09-18T04:49:47.070Z,23.4
2016-09-18T04:50:12.623Z,23.39
2016-09-18T04:50:38.191Z,23.34
2016-09-18T04:51:03.766Z,23.34
2016-09-18T04:51:29.337Z,23.46
2016-09-18T04:51:54.901Z,23.42
2016-09-18T04:52:20.457Z,23.45
2016-09-18T04:52:46.023Z,23.52
2016-09-18T04:53:11.586Z,23.55
2016-09-18T04:53:37.158Z,23.5
2016-09-18T04:54:02.733Z,23.52
2016-09-18T05:13:15.917Z,22.62
2016-09-18T05:13:41.466Z,22.31
2016-09-18T05:14:07.088Z,22.27
2016-09-18T05:14:32.743Z,22.22
2016-09-18T06:48:04.087Z,21.61
2016-09-18T06:48:29.648Z,21.59
2016-09-18T06:48:55.213Z,21.67
2016-09-18T06:49:58.468Z,21.59
2016-09-18T06:50:24.037Z,21.66
2016-09-18T06:50:49.599Z,21.66
2016-09-18T06:51:15.130Z,21.66
2016-09-18T06:51:40.709Z,21.74
2016-09-18T06:52:06.443Z,21.59
2016-09-18T06:52:32.159Z,21.61
2016-09-18T06:52:57.746Z,21.53
2016-09-18T06:53:23.303Z,21.67
2016-09-18T06:53:48.886Z,21.66
2016-09-18T06:54:14.524Z,21.66
2016-09-18T06:54:40.115Z,21.63
2016-09-18T06:55:05.675Z,21.67
2016-09-18T06:55:31.264Z,21.67
2016-09-18T06:57:02.292Z,21.78
2016-09-18T06:57:27.902Z,21.79
2016-09-18T06:57:53.466Z,21.82
2016-09-18T06:58:19.031Z,21.83
2016-09-18T06:58:44.655Z,21.82
2016-09-18T06:59:10.321Z,21.83
2016-09-18T06:59:35.819Z,21.82
2016-09-18T07:00:01.465Z,21.88
2016-09-18T07:00:27.055Z,21.85
2016-09-18T07:00:52.758Z,21.95
2016-09-18T07:01:18.176Z,21.98
2016-09-18T07:01:43.747Z,21.94
2016-09-18T07:02:09.372Z,21.95
2016-09-18T07:02:34.914Z,21.98
2016-09-18T07:03:00.472Z,21.91
2016-09-18T07:03:26.031Z,21.91
2016-09-18T07:03:51.575Z,21.97
2016-09-18T07:04:17.147Z,21.99
2016-09-18T07:04:42.727Z,21.92
2016-09-18T07:05:08.301Z,21.95
2016-09-18T07:05:56.137Z,22.02
2016-09-18T07:06:21.712Z,22.13
2016-09-18T07:06:47.325Z,22.1
2016-09-18T07:07:12.867Z,22.17
2016-09-18T07:07:38.428Z,22.23
2016-09-18T07:08:04.002Z,22.27
2016-09-18T07:08:29.575Z,22.2
2016-09-18T07:08:55.156Z,22.28
2016-09-18T07:09:20.715Z,22.25
2016-09-18T07:09:46.293Z,22.31
2016-09-18T07:10:11.996Z,22.31
2016-09-18T07:10:37.565Z,22.28
2016-09-18T07:11:03.256Z,22.38
2016-09-18T07:11:28.812Z,22.38
2016-09-18T07:11:54.363Z,22.39
2016-09-18T07:12:20.024Z,22.25
2016-09-18T07:12:45.596Z,22.23
2016-09-18T07:13:11.153Z,22.27
2016-09-18T07:13:36.740Z,22.29
2016-09-18T07:14:02.332Z,22.31
2016-09-18T07:14:27.891Z,22.31
2016-09-18T07:14:53.450Z,22.28
2016-09-18T09:43:18.511Z,21.48
2016-09-18T09:43:44.265Z,21.48
2016-09-18T09:44:09.819Z,21.46
2016-09-18T09:44:35.422Z,21.5
2016-09-18T09:45:01.051Z,21.46
2016-09-18T09:45:26.636Z,21.48
2016-09-18T09:45:52.203Z,21.54
2016-09-18T09:46:17.788Z,21.5
2016-09-18T09:46:43.570Z,21.59
2016-09-18T09:47:09.191Z,21.51
2016-09-18T09:47:34.789Z,21.51
2016-09-18T09:48:00.385Z,21.53
2016-09-18T09:48:25.966Z,21.63
2016-09-18T09:48:51.513Z,21.46
2016-09-18T09:49:17.074Z,21.61
2016-09-18T09:49:42.630Z,21.63
2016-09-18T09:50:08.174Z,21.54
2016-09-18T09:50:33.911Z,21.61
2016-09-18T09:50:59.475Z,21.6
2016-09-18T09:51:25.083Z,21.63
2016-09-18T09:51:50.663Z,21.72
2016-09-18T09:52:16.206Z,21.66
2016-09-18T09:52:41.796Z,21.67
2016-09-18T09:53:07.389Z,21.67
2016-09-18T09:53:32.982Z,21.74
2016-09-18T09:53:58.555Z,21.81
2016-09-18T09:54:24.125Z,21.83
2016-09-18T09:54:49.714Z,21.82
2016-09-18T09:55:15.284Z,21.95
2016-09-18T09:55:40.885Z,21.97
2016-09-18T09:56:06.446Z,21.95
2016-09-18T09:56:32.195Z,21.95
2016-09-18T09:56:57.851Z,22.02
2016-09-18T09:57:23.450Z,21.95
2016-09-18T09:57:49.082Z,21.92
2016-09-18T09:58:14.661Z,22.04
2016-09-18T09:58:40.214Z,21.98
2016-09-18T09:59:05.813Z,22.06
2016-09-18T09:59:31.421Z,22.09
2016-09-18T09:59:56.974Z,22.07
2016-09-18T10:00:22.584Z,22.19
2016-09-18T10:00:48.163Z,22.14
2016-09-18T10:01:13.760Z,22.29
2016-09-18T10:01:39.323Z,22.27
2016-09-18T10:02:04.945Z,22.28
2016-09-18T10:02:30.513Z,22.23
2016-09-18T10:02:56.102Z,22.29
2016-09-18T10:03:21.652Z,22.22
2016-09-18T10:03:47.237Z,22.25
2016-09-18T10:04:12.852Z,22.22
2016-09-18T10:04:38.430Z,22.27
2016-09-18T10:05:04.033Z,22.25
2016-09-18T10:05:29.611Z,22.23
2016-09-18T10:05:55.214Z,22.25
2016-09-18T10:06:20.804Z,22.23
2016-09-18T10:06:46.434Z,22.23
2016-09-18T10:07:12.005Z,22.19
2016-09-18T10:07:37.564Z,22.27
2016-09-18T10:08:03.186Z,22.28
2016-09-18T10:08:28.868Z,22.31
2016-09-18T10:08:54.428Z,22.31
2016-09-18T10:09:20.095Z,22.39
2016-09-18T10:09:45.680Z,22.25
2016-09-18T10:10:11.263Z,22.37
2016-09-18T10:10:36.837Z,22.39
2016-09-18T10:11:02.404Z,22.34
2016-09-18T10:11:27.999Z,22.39
2016-09-18T10:11:53.561Z,22.43
2016-09-18T10:12:19.248Z,22.39
2016-09-18T10:12:44.821Z,22.44
2016-09-18T10:13:10.409Z,22.46
2016-09-18T10:13:35.984Z,22.44
2016-09-18T10:14:01.543Z,22.54
2016-09-18T10:14:27.274Z,22.52
2016-09-18T10:14:52.846Z,22.52
2016-09-18T10:15:18.415Z,22.5
2016-09-18T10:15:43.999Z,22.54
2016-09-18T10:16:09.663Z,22.56
2016-09-18T10:16:35.254Z,22.59
2016-09-18T10:17:00.834Z,22.59
2016-09-18T10:17:26.483Z,22.64
2016-09-18T10:17:52.014Z,22.67
2016-09-18T10:18:17.728Z,22.57
2016-09-18T10:18:43.378Z,22.57
2016-09-18T10:19:08.964Z,22.62
2016-09-18T10:19:34.749Z,22.6
2016-09-18T10:20:00.297Z,22.64
2016-09-18T10:20:25.892Z,22.64
2016-09-18T10:20:51.451Z,22.54
2016-09-18T10:21:17.023Z,22.62
2016-09-18T10:21:42.614Z,22.59
2016-09-18T10:22:08.234Z,22.71
2016-09-18T10:23:06.323Z,22.64
2016-09-18T10:23:31.887Z,22.54
2016-09-18T10:23:57.466Z,22.71
2016-09-18T10:24:23.058Z,22.56
2016-09-18T10:24:48.621Z,22.75
2016-09-18T10:25:14.171Z,22.65
2016-09-18T10:25:39.738Z,22.62
2016-09-18T10:26:05.294Z,22.65
2016-09-18T10:26:30.839Z,22.67
2016-09-18T10:26:56.415Z,22.71
2016-09-18T10:27:22.094Z,22.72
2016-09-18T10:27:47.529Z,22.64
2016-09-18T10:28:13.083Z,22.72
2016-09-18T10:28:38.721Z,22.72
2016-09-18T10:29:04.280Z,22.75
2016-09-18T10:29:29.869Z,22.75
2016-09-18T10:29:55.434Z,22.8
2016-09-18T10:30:21.008Z,22.8
2016-09-18T10:30:46.565Z,22.77
2016-09-18T10:31:12.119Z,22.83
2016-09-18T10:31:37.683Z,22.77
2016-09-18T10:32:03.255Z,22.78
2016-09-18T10:32:28.864Z,22.78
2016-09-18T10:32:54.483Z,22.78
2016-09-18T10:33:20.073Z,22.82
2016-09-18T10:33:45.620Z,22.74
2016-09-18T10:34:11.177Z,22.84
2016-09-18T10:35:04.127Z,22.74
2016-09-18T10:35:29.700Z,22.77
2016-09-18T10:35:55.293Z,22.77
2016-09-18T10:36:20.842Z,22.78
2016-09-18T10:36:46.407Z,22.77
2016-09-18T10:37:11.972Z,22.77
2016-09-18T10:37:37.523Z,22.74
2016-09-18T10:38:03.087Z,22.77
2016-09-18T10:38:28.631Z,22.75
2016-09-18T10:38:54.193Z,22.78
2016-09-18T10:39:19.770Z,22.74
2016-09-18T10:39:45.338Z,22.8
2016-09-18T10:40:10.900Z,22.78
2016-09-18T10:40:36.511Z,22.75
2016-09-18T10:41:02.105Z,22.83
2016-09-18T10:41:27.795Z,22.77
2016-09-18T10:41:53.345Z,22.82
2016-09-18T10:42:18.926Z,22.78
2016-09-18T10:42:44.516Z,22.82
2016-09-18T10:43:10.131Z,22.8
2016-09-18T10:43:35.697Z,22.8
2016-09-18T10:44:01.270Z,22.78
2016-09-18T10:44:59.420Z,22.78
2016-09-18T10:45:25.014Z,22.83
2016-09-18T10:45:50.572Z,22.8
2016-09-18T10:46:38.468Z,22.8
2016-09-18T10:47:04.091Z,22.82
2016-09-18T10:48:02.145Z,22.82
2016-09-18T10:48:27.722Z,22.94
2016-09-18T10:50:35.210Z,22.82
2016-09-18T10:51:00.762Z,22.89
2016-09-18T10:51:26.351Z,22.96
2016-09-18T10:51:51.913Z,22.92
2016-09-18T10:52:17.463Z,22.94
2016-09-18T10:52:43.026Z,22.78
2016-09-18T10:53:08.602Z,22.86
2016-09-18T10:53:34.169Z,22.82
2016-09-18T10:53:59.759Z,22.84
2016-09-18T10:54:25.330Z,22.8
2016-09-18T10:54:50.918Z,22.89
2016-09-18T10:55:16.461Z,22.75
2016-09-18T10:55:42.024Z,22.89
2016-09-18T10:56:07.610Z,22.94
2016-09-18T10:56:33.197Z,22.89
2016-09-18T10:56:58.762Z,22.96
2016-09-18T10:57:24.358Z,22.94
2016-09-18T10:57:50.085Z,22.89
2016-09-18T10:58:15.711Z,22.92
2016-09-18T10:58:41.270Z,22.93
2016-09-18T10:59:06.828Z,22.99
2016-09-18T10:59:32.396Z,23.02
2016-09-18T10:59:58.021Z,23.04
2016-09-18T11:00:23.692Z,22.97
2016-09-18T11:00:49.264Z,22.99
2016-09-18T11:01:14.856Z,22.93
2016-09-18T11:01:40.553Z,23.02
2016-09-18T11:02:06.171Z,23.08
2016-09-18T11:03:09.352Z,22.96
2016-09-18T11:04:02.339Z,23.07
2016-09-18T11:04:27.916Z,23.11
2016-09-18T11:04:53.502Z,23.08
2016-09-18T11:05:19.056Z,23.04
2016-09-18T11:05:44.629Z,23.07
2016-09-18T11:06:10.239Z,23.04
2016-09-18T11:06:35.803Z,23.08
2016-09-18T11:07:01.355Z,23.01
2016-09-18T11:07:28.354Z,23.01
2016-09-18T11:07:53.910Z,23.01
2016-09-18T11:08:19.484Z,22.99
2016-09-18T11:08:45.068Z,22.99
2016-09-18T11:09:10.625Z,23.08
2016-09-18T11:09:36.207Z,22.99
2016-09-18T11:10:01.764Z,23.04
2016-09-18T11:10:27.321Z,23.08
2016-09-18T11:10:52.879Z,23.09
2016-09-18T11:11:18.536Z,23.01
2016-09-18T11:11:44.090Z,22.96
2016-09-18T11:12:09.632Z,22.99
2016-09-18T11:12:35.742Z,23.02
2016-09-18T11:13:01.323Z,23.14
2016-09-18T11:13:26.885Z,23.07
2016-09-18T11:13:52.551Z,23.05
2016-09-18T11:14:18.118Z,23.09
2016-09-18T11:14:43.696Z,23.12
2016-09-18T11:15:09.315Z,23.22
2016-09-18T11:15:35.029Z,23.24
2016-09-18T11:16:00.508Z,23.31
2016-09-18T11:16:26.096Z,23.29
2016-09-18T11:16:51.656Z,23.23
2016-09-18T11:17:17.220Z,23.32
2016-09-18T11:18:10.217Z,23.32
2016-09-18T11:18:35.788Z,23.34
2016-09-18T11:19:01.360Z,23.38
2016-09-18T11:19:26.922Z,23.35
2016-09-18T11:19:52.479Z,23.27
2016-09-18T11:20:18.034Z,23.23
2016-09-18T11:20:43.638Z,23.22
2016-09-18T11:21:09.188Z,23.29
2016-09-18T11:21:34.740Z,23.4
2016-09-18T11:22:00.383Z,23.38
2016-09-18T11:22:25.955Z,23.32
2016-09-18T11:22:51.605Z,23.35
2016-09-18T11:23:17.175Z,23.34
2016-09-18T11:23:42.745Z,23.35
2016-09-18T11:24:08.350Z,23.38
2016-09-18T11:24:34.002Z,23.35
2016-09-18T11:24:59.612Z,23.31
2016-09-18T11:25:25.195Z,23.38
2016-09-18T11:25:50.774Z,23.42
2016-09-18T11:26:16.378Z,23.35
2016-09-18T11:26:41.960Z,23.38
2016-09-18T11:27:07.536Z,23.46
2016-09-18T11:28:00.572Z,23.52
2016-09-18T11:28:26.140Z,23.5
2016-09-18T11:28:51.779Z,23.53
2016-09-18T11:29:17.326Z,23.47
2016-09-18T11:29:42.920Z,23.42
2016-09-18T11:30:08.501Z,23.52
2016-09-18T11:30:34.079Z,23.5
2016-09-18T11:30:59.703Z,23.5
2016-09-18T11:31:25.288Z,23.52
2016-09-18T11:31:50.861Z,23.52
2016-09-18T11:32:16.417Z,23.61
2016-09-18T11:32:41.999Z,23.62
2016-09-18T11:33:07.650Z,23.71
2016-09-18T11:33:33.234Z,23.75
2016-09-18T11:33:58.786Z,23.75
2016-09-18T11:34:24.364Z,23.64
2016-09-18T11:34:49.966Z,23.67
2016-09-18T11:35:15.593Z,23.62
2016-09-18T11:36:08.616Z,23.67
2016-09-18T11:36:34.172Z,23.7
2016-09-18T11:36:59.731Z,23.68
2016-09-18T11:37:25.323Z,23.65
2016-09-18T11:37:50.918Z,23.62
2016-09-18T11:38:16.475Z,23.53
2016-09-18T11:38:42.049Z,23.5
2016-09-18T11:39:07.622Z,23.52
2016-09-18T11:39:33.190Z,23.61
2016-09-18T11:39:58.779Z,23.67
2016-09-18T11:40:24.405Z,23.65
2016-09-18T11:40:49.920Z,23.68
2016-09-18T11:41:15.503Z,23.76
2016-09-18T11:41:41.090Z,23.72
2016-09-18T11:42:06.664Z,23.77
2016-09-18T11:42:32.234Z,23.8
2016-09-18T11:42:57.802Z,23.79
2016-09-18T11:43:23.346Z,23.83
2016-09-18T11:43:48.949Z,23.89
2016-09-18T11:44:14.520Z,23.85
2016-09-18T11:44:40.101Z,23.83
2016-09-18T11:45:05.768Z,23.9
2016-09-18T11:46:08.816Z,23.77
2016-09-18T11:46:34.402Z,23.79
2016-09-18T11:47:00.023Z,23.75
2016-09-18T11:48:03.219Z,23.7
2016-09-18T11:48:28.882Z,23.71
2016-09-18T11:48:54.427Z,23.7
2016-09-18T11:49:20.001Z,23.68
2016-09-18T11:49:45.549Z,23.62
2016-09-18T11:50:11.263Z,23.68
2016-09-18T11:50:36.821Z,23.64
2016-09-18T11:51:02.378Z,23.62
2016-09-18T11:51:27.989Z,23.58
2016-09-18T11:51:53.542Z,23.62
2016-09-18T11:52:19.094Z,23.72
2016-09-18T11:52:44.660Z,23.64
2016-09-18T11:53:10.245Z,23.67
2016-09-18T11:54:08.319Z,23.52
2016-09-18T11:55:01.304Z,23.5
2016-09-18T11:55:26.862Z,23.5
2016-09-18T11:55:52.428Z,23.47
2016-09-18T11:56:18.028Z,23.49
2016-09-18T11:56:43.585Z,23.53
2016-09-18T11:57:09.212Z,23.58
2016-09-18T11:57:34.764Z,23.49
2016-09-18T11:58:00.320Z,23.47
2016-09-18T11:58:25.900Z,23.52
2016-09-18T11:58:51.591Z,23.5
2016-09-18T11:59:17.148Z,23.52
2016-09-18T11:59:42.719Z,23.38
2016-09-18T12:00:08.352Z,23.39
2016-09-18T12:01:11.547Z,23.38
2016-09-18T12:01:37.123Z,23.34
2016-09-18T12:02:02.687Z,23.32
2016-09-18T12:02:28.295Z,23.24
2016-09-18T12:02:53.864Z,23.35
2016-09-18T12:03:19.442Z,23.29
2016-09-18T12:03:45.167Z,23.24
2016-09-18T12:04:10.745Z,23.31
2016-09-18T12:04:36.506Z,23.23
2016-09-18T12:05:02.082Z,23.24
2016-09-18T12:05:27.633Z,23.27
2016-09-18T12:05:53.187Z,23.32
2016-09-18T12:06:18.805Z,23.26
2016-09-18T12:06:44.374Z,23.32
2016-09-18T12:07:09.946Z,23.27
2016-09-18T12:07:35.492Z,23.22
2016-09-18T12:08:01.103Z,23.22
2016-09-18T12:09:04.338Z,23.34
2016-09-18T12:09:29.942Z,23.23
2016-09-18T12:09:55.491Z,23.29
2016-09-18T12:10:21.123Z,23.26
2016-09-18T12:10:46.721Z,23.19
2016-09-18T12:11:12.418Z,23.17
2016-09-18T12:11:37.966Z,23.12
2016-09-18T12:12:03.576Z,23.09
2016-09-18T12:12:29.139Z,23.11
2016-09-18T12:12:54.767Z,23.07
2016-09-18T12:13:20.380Z,23.12
2016-09-18T12:13:45.918Z,23.07
2016-09-18T12:14:11.543Z,23.05
2016-09-18T12:14:37.202Z,23.12
2016-09-18T12:15:02.751Z,23.09
2016-09-18T12:15:28.303Z,23.08
2016-09-18T12:15:53.897Z,23.11
2016-09-18T12:16:19.491Z,23.07
2016-09-18T12:16:45.079Z,22.99
2016-09-18T12:17:10.694Z,23.04
2016-09-18T12:17:36.324Z,23.07
2016-09-18T12:18:01.875Z,22.94
2016-09-18T12:18:27.492Z,22.99
2016-09-18T12:18:53.077Z,22.99
2016-09-18T12:19:18.640Z,22.99
2016-09-18T12:19:44.214Z,23.01
2016-09-18T12:20:09.762Z,22.92
2016-09-18T12:20:35.381Z,22.99
2016-09-18T12:21:00.951Z,22.96
2016-09-18T12:21:26.533Z,22.99
2016-09-18T12:21:52.418Z,22.99
2016-09-18T12:22:17.964Z,23.05
2016-09-18T12:22:43.624Z,23.02
2016-09-18T12:23:09.202Z,23.01
2016-09-18T12:23:34.771Z,23.04
2016-09-18T12:24:00.367Z,22.93
2016-09-18T12:24:25.971Z,23.04
2016-09-18T12:24:51.531Z,23.14
2016-09-18T12:25:17.095Z,23.09
2016-09-18T12:25:42.647Z,23.15
2016-09-18T12:26:08.218Z,23.15
2016-09-18T12:26:33.802Z,23.2
2016-09-18T12:26:59.386Z,23.26
2016-09-18T12:27:24.972Z,23.24
2016-09-18T12:27:50.527Z,23.38
2016-09-18T12:28:16.101Z,23.43
2016-09-18T12:28:41.690Z,23.38
2016-09-18T12:29:07.235Z,23.52
2016-09-18T12:29:32.803Z,23.57
2016-09-18T12:29:58.343Z,23.57
2016-09-18T12:30:23.946Z,23.62
2016-09-18T12:30:49.492Z,23.65
2016-09-18T12:31:15.032Z,23.7
2016-09-18T12:31:40.585Z,23.64
2016-09-18T12:32:06.147Z,23.72
2016-09-18T12:32:31.727Z,23.65
2016-09-18T12:32:57.315Z,23.64
2016-09-18T12:33:22.874Z,23.64
2016-09-18T12:33:48.427Z,23.68
2016-09-18T12:34:14.027Z,23.68
2016-09-18T12:34:39.565Z,23.64
2016-09-18T12:35:05.146Z,23.65
2016-09-18T12:35:30.716Z,23.65
2016-09-18T12:35:56.302Z,23.7
2016-09-18T12:36:21.862Z,23.64
2016-09-18T12:37:09.700Z,23.62
2016-09-18T12:37:35.287Z,23.53
2016-09-18T12:38:00.892Z,23.62
2016-09-18T12:38:26.503Z,23.53
2016-09-18T12:38:52.134Z,23.58
2016-09-18T12:39:17.693Z,23.53
2016-09-18T12:39:43.251Z,23.47
2016-09-18T12:40:08.794Z,23.5
2016-09-18T12:40:34.371Z,23.4
2016-09-18T12:40:59.971Z,23.38
2016-09-18T12:41:25.565Z,23.39
2016-09-18T12:41:51.140Z,23.46
2016-09-18T12:42:16.741Z,23.38
2016-09-18T12:42:42.320Z,23.32
2016-09-18T12:43:07.857Z,23.32
2016-09-18T12:43:33.405Z,23.4
2016-09-18T12:43:58.958Z,23.29
2016-09-18T12:45:07.321Z,23.35
2016-09-18T12:45:32.881Z,23.38
2016-09-18T12:45:58.417Z,23.27
2016-09-18T12:46:24.001Z,23.27
2016-09-18T12:46:49.606Z,23.35
2016-09-18T12:47:15.187Z,23.22
2016-09-18T12:48:03.042Z,23.24
2016-09-18T12:48:28.602Z,23.27
2016-09-18T12:48:54.158Z,23.23
2016-09-18T12:49:19.735Z,23.2
2016-09-18T12:49:45.298Z,23.2
2016-09-18T12:50:10.886Z,23.2
2016-09-18T12:50:36.465Z,23.19
2016-09-18T12:51:02.053Z,23.12
2016-09-18T12:51:27.725Z,23.12
2016-09-18T12:51:53.261Z,23.09
2016-09-18T12:52:18.824Z,23.04
2016-09-18T12:52:44.444Z,23.12
2016-09-18T12:53:10.020Z,23.05
2016-09-18T12:53:35.608Z,23.01
2016-09-18T12:54:01.168Z,23.07
2016-09-18T12:54:26.720Z,23.11
2016-09-18T12:54:52.276Z,23.05
2016-09-18T12:55:17.845Z,23.05
2016-09-18T12:55:43.418Z,23.15
2016-09-18T12:56:09.001Z,23.15
2016-09-18T12:56:34.543Z,23.19
2016-09-18T12:57:00.091Z,23.12
2016-09-18T12:57:25.674Z,23.23
2016-09-18T12:57:51.258Z,23.29
2016-09-18T12:58:16.917Z,23.17
2016-09-18T12:58:42.477Z,23.19
2016-09-18T12:59:08.049Z,23.22
2016-09-18T12:59:33.631Z,23.24
2016-09-18T12:59:59.259Z,23.26
2016-09-18T13:00:24.845Z,23.23
2016-09-18T13:00:50.409Z,23.29
2016-09-18T13:01:16.052Z,23.34
2016-09-18T13:01:41.627Z,23.38
2016-09-18T13:02:07.178Z,23.43
2016-09-18T13:02:32.739Z,23.5
2016-09-18T13:02:58.406Z,23.47
2016-09-18T13:03:23.967Z,23.46
2016-09-18T13:03:49.539Z,23.53
2016-09-18T13:04:16.065Z,23.47
2016-09-18T13:04:41.641Z,23.47
2016-09-18T13:05:07.350Z,23.38
2016-09-18T13:05:32.934Z,23.47
2016-09-18T13:05:58.526Z,23.52
2016-09-18T13:06:24.081Z,23.49
2016-09-18T13:06:49.661Z,23.52
2016-09-18T13:07:15.233Z,23.45
2016-09-18T13:07:40.795Z,23.4
2016-09-18T13:08:06.355Z,23.53
2016-09-18T13:08:32.008Z,23.34
2016-09-18T13:08:57.531Z,23.43
2016-09-18T13:09:23.122Z,23.45
2016-09-18T13:09:48.696Z,23.35
2016-09-18T13:10:14.266Z,23.39
2016-09-18T13:10:39.885Z,23.29
2016-09-18T13:11:05.437Z,23.26
2016-09-18T13:11:31.003Z,23.29
2016-09-18T13:11:56.605Z,23.34
2016-09-18T13:12:22.144Z,23.31
2016-09-18T13:12:47.729Z,23.34
2016-09-18T13:13:13.285Z,23.29
2016-09-18T13:14:06.354Z,23.32
2016-09-18T13:14:31.915Z,23.42
2016-09-18T13:14:57.518Z,23.49
2016-09-18T13:15:23.087Z,23.52
2016-09-18T13:16:10.908Z,23.71
2016-09-18T13:16:36.531Z,23.75
2016-09-18T13:17:02.203Z,23.72
2016-09-18T13:17:27.951Z,23.85
2016-09-18T13:17:53.521Z,23.8
2016-09-18T13:18:19.683Z,23.8
2016-09-18T13:18:45.353Z,23.87
2016-09-18T13:19:10.908Z,23.83
2016-09-18T13:19:36.602Z,23.89
2016-09-18T13:20:02.251Z,23.86
2016-09-18T13:20:27.791Z,23.86
2016-09-18T13:20:53.357Z,23.87
2016-09-18T13:21:18.924Z,23.86
2016-09-18T13:21:44.466Z,23.82
2016-09-18T13:22:10.039Z,23.75
2016-09-18T13:22:35.605Z,23.7
2016-09-18T13:23:01.185Z,23.65
2016-09-18T13:23:26.742Z,23.7
2016-09-18T13:23:52.343Z,23.7
2016-09-18T13:24:17.907Z,23.75
2016-09-18T13:24:43.440Z,23.75
2016-09-18T13:25:08.982Z,23.83
2016-09-18T13:25:34.561Z,23.77
2016-09-18T13:26:00.111Z,23.82
2016-09-18T13:26:25.691Z,23.79
2016-09-18T13:26:51.345Z,23.68
2016-09-18T13:27:16.878Z,23.75
2016-09-18T13:27:42.444Z,23.7
2016-09-18T13:28:08.016Z,23.79
2016-09-18T13:28:33.638Z,23.85
2016-09-18T13:28:59.213Z,23.89
2016-09-18T13:29:24.947Z,23.86
2016-09-18T13:29:50.523Z,23.86
2016-09-18T13:30:16.081Z,23.86
2016-09-18T13:30:41.649Z,23.79
2016-09-18T13:31:07.188Z,23.79
2016-09-18T13:31:33.062Z,23.75
2016-09-18T13:31:58.616Z,23.83
2016-09-18T13:32:24.220Z,23.82
2016-09-18T13:32:49.788Z,23.89
2016-09-18T13:33:15.337Z,23.89
2016-09-18T13:33:40.924Z,23.85
2016-09-18T13:34:06.507Z,23.82
2016-09-18T13:34:32.089Z,23.86
2016-09-18T13:34:57.650Z,23.95
2016-09-18T13:35:23.206Z,23.92
2016-09-18T13:35:48.856Z,24
2016-09-18T13:36:14.447Z,23.97
2016-09-18T13:36:40.009Z,23.95
2016-09-18T13:37:05.787Z,24.07
2016-09-18T13:37:31.356Z,23.97
2016-09-18T13:37:57.074Z,24.07
2016-09-18T13:38:22.616Z,24.16
2016-09-18T13:38:48.210Z,24.12
2016-09-18T13:39:13.790Z,24.08
2016-09-18T13:39:39.404Z,24.04
2016-09-18T13:40:04.996Z,24.19
2016-09-18T13:40:30.539Z,24.07
2016-09-18T13:40:56.122Z,24.13
2016-09-18T13:41:21.745Z,24.14
2016-09-18T13:41:47.322Z,24.16
2016-09-18T13:42:12.902Z,24.07
2016-09-18T13:42:38.463Z,24.07
2016-09-18T13:43:04.055Z,24.1
2016-09-18T13:43:29.649Z,24.14
2016-09-18T13:43:55.302Z,24.2
2016-09-18T13:44:20.890Z,24.19
2016-09-18T13:44:46.454Z,24.2
2016-09-18T13:45:12.018Z,24.14
2016-09-18T13:45:37.560Z,24.24
2016-09-18T13:46:03.121Z,24.19
2016-09-18T13:46:28.690Z,24.16
2016-09-18T13:46:54.246Z,24.04
2016-09-18T13:47:19.813Z,24.14
2016-09-18T13:47:45.377Z,24.08
2016-09-18T13:48:10.945Z,24.07
2016-09-18T13:48:36.529Z,24.14
2016-09-18T13:49:02.082Z,24.1
2016-09-18T13:49:27.671Z,24.13
2016-09-18T13:49:53.256Z,24.13
2016-09-18T13:50:18.846Z,24.13
2016-09-18T13:50:44.402Z,24.12
2016-09-18T13:51:09.967Z,24.12
2016-09-18T13:51:35.535Z,24.07
2016-09-18T13:52:01.153Z,24.07
2016-09-18T13:52:26.797Z,24.05
2016-09-18T13:52:52.383Z,24.08
2016-09-18T13:53:18.030Z,24.04
2016-09-18T13:53:43.604Z,24.04
2016-09-18T13:54:09.171Z,24.1
2016-09-18T13:54:34.740Z,24.12
2016-09-18T13:55:00.386Z,24.14
2016-09-18T13:55:25.958Z,24.07
2016-09-18T13:55:51.529Z,24.14
2016-09-18T13:56:17.189Z,24.08
2016-09-18T13:56:42.743Z,24.1
2016-09-18T13:57:08.327Z,24.17
2016-09-18T13:57:33.883Z,24.19
2016-09-18T13:57:59.466Z,24.22
2016-09-18T13:58:25.023Z,24.08
2016-09-18T13:58:50.727Z,24.14
2016-09-18T13:59:16.368Z,24.04
2016-09-18T13:59:41.930Z,24.05
2016-09-18T14:00:07.578Z,24.01
2016-09-18T14:00:33.173Z,24
2016-09-18T14:00:58.759Z,24
2016-09-18T14:01:24.323Z,24.01
2016-09-18T14:01:50.027Z,24.05
2016-09-18T14:02:15.620Z,23.87
2016-09-18T14:02:41.191Z,23.92
2016-09-18T14:03:06.772Z,23.95
2016-09-18T14:04:09.971Z,23.95
2016-09-18T14:04:35.517Z,23.95
2016-09-18T14:05:01.095Z,23.97
2016-09-18T14:05:26.803Z,23.97
2016-09-18T14:05:52.434Z,23.95
2016-09-18T14:06:18.005Z,23.9
2016-09-18T14:06:43.629Z,24.02
2016-09-18T14:07:09.170Z,24.05